Kazime Ana — TCPT8 — position and weather

sailwx.info

Track history (hours):
 
Tides and Currents Weather Stations Pressure Air Temp Water Temp Dewpoint Dewpoint Depression Visibility Wind Speed Wind Dir Waves Ship Positions

Kazime Ana

Last reported at 2016-Aug-22 00:08 UTC. Time now 2016-Aug-27 16:51 UTC.
Position N 43°38' E 037°32'.

Length 115 m; draft 7.1 m.

Type: Cargo ship. MMSI: 271001019.

Date/timePositionNaut miles runAvg speedWind from/ knotsBaromVisibWave heightAir tempDewpointWater temp
2016-Aug-22 00:08N 43°38' E 037°32'18 9.9
2016-Aug-21 22:18N 43°43' E 037°56'810.1
2016-Aug-21 21:34N 43°45' E 038°05'1010.0
2016-Aug-21 20:34N 43°50' E 038°18'10 9.6
2016-Aug-21 19:33N 43°53' E 038°30'9 9.4
2016-Aug-21 18:33N 43°56' E 038°42'10 9.8
2016-Aug-21 17:33N 43°60' E 038°55'8 8.3
2016-Aug-21 16:33N 44°05' E 039°04'0 0.5
2016-Aug-21 15:33N 44°06' E 039°04'0 0.0
2016-Aug-21 14:33N 44°06' E 039°04'0 0.0
2016-Aug-21 13:33N 44°06' E 039°04'0 0.0
2016-Aug-21 12:33N 44°06' E 039°04'0 0.0
2016-Aug-21 11:33N 44°06' E 039°04'0 0.0
2016-Aug-21 10:33N 44°06' E 039°04'0 0.0
2016-Aug-21 09:33N 44°06' E 039°04'0 0.0
2016-Aug-21 08:33N 44°06' E 039°04'0 0.0
2016-Aug-21 07:33N 44°06' E 039°04'0 0.0
2016-Aug-21 06:33N 44°06' E 039°04'0 0.0
2016-Aug-21 05:33N 44°06' E 039°04'0 0.0
2016-Aug-21 04:33N 44°06' E 039°04'0 0.0
2016-Aug-21 03:33N 44°06' E 039°04'0 0.0
2016-Aug-21 02:33N 44°06' E 039°04'0 0.0
2016-Aug-21 01:33N 44°06' E 039°04'0 0.0
2016-Aug-21 00:33N 44°06' E 039°04'0 0.0
2016-Aug-20 23:33N 44°06' E 039°04'0 0.0
2016-Aug-20 22:33N 44°06' E 039°04'0 0.0
2016-Aug-20 21:33N 44°06' E 039°04'0 0.0
2016-Aug-20 20:33N 44°06' E 039°04'0 0.0
2016-Aug-20 19:33N 44°06' E 039°04'0 0.0
2016-Aug-20 18:30N 44°06' E 039°04'0 0.0
2016-Aug-20 17:33N 44°06' E 039°04'0 0.0
2016-Aug-20 16:33N 44°06' E 039°04'0 0.0
2016-Aug-20 15:33N 44°06' E 039°04'3 3.2
2016-Aug-20 14:34N 44°02' E 039°03'8 7.5
2016-Aug-20 13:34N 43°59' E 038°54'1111.3
2016-Aug-20 12:33N 43°54' E 038°40'1111.3
2016-Aug-20 11:34N 43°49' E 038°26'1211.2
2016-Aug-20 10:32N 43°44' E 038°11'1111.4
2016-Aug-20 09:33N 43°40' E 037°57'1111.5
2016-Aug-20 08:33N 43°35' E 037°43'41810.6
2016-Aug-18 17:17N 40°57' E 029°00'6 7.7
2016-Aug-18 16:33N 40°54' E 029°06'4 1.8
2016-Aug-18 14:25N 40°52' E 029°11'0 0.0
2016-Aug-18 13:31N 40°52' E 029°11'0 0.0
2016-Aug-18 12:31N 40°52' E 029°11'0 0.0
2016-Aug-18 10:19N 40°52' E 029°11'0 0.0
2016-Aug-18 09:31N 40°52' E 029°11'0 0.0
2016-Aug-18 08:22N 40°52' E 029°11'0 0.0
2016-Aug-18 06:31N 40°52' E 029°11'0 0.0
2016-Aug-18 05:32N 40°52' E 029°11'8 8.5
2016-Aug-18 04:33N 40°46' E 029°03'1110.8
2016-Aug-18 03:30N 40°41' E 028°50'16 8.2
2016-Aug-18 01:32N 40°26' E 028°58'5 5.4
2016-Aug-18 00:32N 40°25' E 029°05'0 0.0
2016-Aug-17 23:32N 40°25' E 029°05'0 0.0
2016-Aug-17 22:32N 40°25' E 029°05'0 0.0
2016-Aug-17 21:32N 40°25' E 029°05'0 0.0
2016-Aug-17 20:26N 40°25' E 029°05'0 0.0
2016-Aug-17 19:32N 40°25' E 029°05'0 0.0
2016-Aug-17 18:32N 40°25' E 029°05'0 0.0
2016-Aug-17 17:26N 40°25' E 029°05'0 0.0
2016-Aug-17 16:32N 40°25' E 029°05'0 0.0
2016-Aug-17 15:32N 40°25' E 029°05'0 0.0
2016-Aug-17 14:32N 40°25' E 029°05'0 0.0
2016-Aug-17 13:32N 40°25' E 029°05'0 0.0
2016-Aug-17 12:32N 40°25' E 029°05'0 0.0
2016-Aug-17 11:32N 40°25' E 029°05'0 0.0
2016-Aug-17 10:26N 40°25' E 029°05'0 0.0
2016-Aug-17 09:26N 40°25' E 029°05'0 0.0
2016-Aug-17 08:08N 40°25' E 029°05'0 0.0
2016-Aug-17 07:32N 40°25' E 029°05'0 0.0
2016-Aug-17 06:08N 40°25' E 029°05'0 0.0
2016-Aug-17 05:26N 40°25' E 029°05'0 0.0
2016-Aug-17 04:26N 40°25' E 029°05'0 0.0
2016-Aug-17 03:32N 40°25' E 029°05'0 0.0
2016-Aug-17 02:26N 40°25' E 029°05'0 0.0
2016-Aug-17 01:32N 40°25' E 029°05'0 0.0
2016-Aug-17 00:26N 40°25' E 029°05'0 0.0
2016-Aug-16 23:20N 40°25' E 029°05'0 0.0
2016-Aug-16 22:32N 40°25' E 029°05'0 0.0
2016-Aug-16 21:26N 40°25' E 029°05'0 0.0
2016-Aug-16 20:32N 40°25' E 029°05'0 0.0
2016-Aug-16 19:26N 40°25' E 029°05'0 0.0
2016-Aug-16 18:32N 40°25' E 029°05'0 0.0
2016-Aug-16 17:26N 40°25' E 029°05'0 0.0
2016-Aug-16 16:20N 40°25' E 029°05'0 0.0
2016-Aug-16 14:32N 40°25' E 029°05'0 0.0
2016-Aug-16 13:32N 40°25' E 029°05'0 0.0
2016-Aug-16 12:14N 40°25' E 029°05'0 0.0
2016-Aug-16 11:32N 40°25' E 029°05'0 0.0
2016-Aug-16 10:26N 40°25' E 029°05'0 0.0
2016-Aug-16 09:26N 40°25' E 029°05'0 0.0
2016-Aug-16 08:32N 40°25' E 029°05'0 0.0
2016-Aug-16 07:26N 40°25' E 029°05'0 0.0
2016-Aug-16 04:32N 40°25' E 029°05'0 0.0
2016-Aug-16 03:26N 40°25' E 029°05'0 0.0
2016-Aug-16 02:32N 40°25' E 029°05'0 0.0
2016-Aug-16 00:32N 40°25' E 029°05'0 0.0
2016-Aug-15 23:32N 40°25' E 029°05'0 0.0
2016-Aug-15 22:32N 40°25' E 029°05'0 0.0
2016-Aug-15 21:32N 40°25' E 029°05'0 0.0
2016-Aug-15 20:26N 40°25' E 029°05'0 0.0
2016-Aug-15 19:32N 40°25' E 029°05'0 0.0
2016-Aug-15 18:32N 40°25' E 029°05'0 0.0
2016-Aug-15 17:32N 40°25' E 029°05'0 0.0
2016-Aug-15 15:32N 40°25' E 029°05'1 1.0
2016-Aug-15 14:33N 40°26' E 029°05'2 0.1
2016-Aug-14 17:33N 40°26' E 029°02'16 7.8
2016-Aug-14 15:27N 40°38' E 028°47'1010.7
2016-Aug-14 14:31N 40°48' E 028°50'1010.4
2016-Aug-14 13:31N 40°58' E 028°55'4 0.2
2016-Aug-13 21:17N 40°59' E 028°59'33510.2
2016-Aug-12 12:26N 46°23' E 030°55'910.3
2016-Aug-12 11:32N 46°32' E 030°55'  
Track history (hours):
 
Tides and Currents Weather Stations Pressure Air Temp Water Temp Dewpoint Dewpoint Depression Visibility Wind Speed Wind Dir Waves Ship Positions

Kazime Ana

Last reported at 2016-Aug-22 00:08 UTC. Time now 2016-Aug-27 16:51 UTC.
Position N 43°38' E 037°32'.

Length 115 m; draft 7.1 m.

Type: Cargo ship. MMSI: 271001019.

Date/timePositionNaut miles runAvg speedWind from/ knotsBaromVisibWave heightAir tempDewpointWater temp
2016-Aug-22 00:08N 43°38' E 037°32'18 9.9
2016-Aug-21 22:18N 43°43' E 037°56'810.1
2016-Aug-21 21:34N 43°45' E 038°05'1010.0
2016-Aug-21 20:34N 43°50' E 038°18'10 9.6
2016-Aug-21 19:33N 43°53' E 038°30'9 9.4
2016-Aug-21 18:33N 43°56' E 038°42'10 9.8
2016-Aug-21 17:33N 43°60' E 038°55'8 8.3
2016-Aug-21 16:33N 44°05' E 039°04'0 0.5
2016-Aug-21 15:33N 44°06' E 039°04'0 0.0
2016-Aug-21 14:33N 44°06' E 039°04'0 0.0
2016-Aug-21 13:33N 44°06' E 039°04'0 0.0
2016-Aug-21 12:33N 44°06' E 039°04'0 0.0
2016-Aug-21 11:33N 44°06' E 039°04'0 0.0
2016-Aug-21 10:33N 44°06' E 039°04'0 0.0
2016-Aug-21 09:33N 44°06' E 039°04'0 0.0
2016-Aug-21 08:33N 44°06' E 039°04'0 0.0
2016-Aug-21 07:33N 44°06' E 039°04'0 0.0
2016-Aug-21 06:33N 44°06' E 039°04'0 0.0
2016-Aug-21 05:33N 44°06' E 039°04'0 0.0
2016-Aug-21 04:33N 44°06' E 039°04'0 0.0
2016-Aug-21 03:33N 44°06' E 039°04'0 0.0
2016-Aug-21 02:33N 44°06' E 039°04'0 0.0
2016-Aug-21 01:33N 44°06' E 039°04'0 0.0
2016-Aug-21 00:33N 44°06' E 039°04'0 0.0
2016-Aug-20 23:33N 44°06' E 039°04'0 0.0
2016-Aug-20 22:33N 44°06' E 039°04'0 0.0
2016-Aug-20 21:33N 44°06' E 039°04'0 0.0
2016-Aug-20 20:33N 44°06' E 039°04'0 0.0
2016-Aug-20 19:33N 44°06' E 039°04'0 0.0
2016-Aug-20 18:30N 44°06' E 039°04'0 0.0
2016-Aug-20 17:33N 44°06' E 039°04'0 0.0
2016-Aug-20 16:33N 44°06' E 039°04'0 0.0
2016-Aug-20 15:33N 44°06' E 039°04'3 3.2
2016-Aug-20 14:34N 44°02' E 039°03'8 7.5
2016-Aug-20 13:34N 43°59' E 038°54'1111.3
2016-Aug-20 12:33N 43°54' E 038°40'1111.3
2016-Aug-20 11:34N 43°49' E 038°26'1211.2
2016-Aug-20 10:32N 43°44' E 038°11'1111.4
2016-Aug-20 09:33N 43°40' E 037°57'1111.5
2016-Aug-20 08:33N 43°35' E 037°43'41810.6
2016-Aug-18 17:17N 40°57' E 029°00'6 7.7
2016-Aug-18 16:33N 40°54' E 029°06'4 1.8
2016-Aug-18 14:25N 40°52' E 029°11'0 0.0
2016-Aug-18 13:31N 40°52' E 029°11'0 0.0
2016-Aug-18 12:31N 40°52' E 029°11'0 0.0
2016-Aug-18 10:19N 40°52' E 029°11'0 0.0
2016-Aug-18 09:31N 40°52' E 029°11'0 0.0
2016-Aug-18 08:22N 40°52' E 029°11'0 0.0
2016-Aug-18 06:31N 40°52' E 029°11'0 0.0
2016-Aug-18 05:32N 40°52' E 029°11'8 8.5
2016-Aug-18 04:33N 40°46' E 029°03'1110.8
2016-Aug-18 03:30N 40°41' E 028°50'16 8.2
2016-Aug-18 01:32N 40°26' E 028°58'5 5.4
2016-Aug-18 00:32N 40°25' E 029°05'0 0.0
2016-Aug-17 23:32N 40°25' E 029°05'0 0.0
2016-Aug-17 22:32N 40°25' E 029°05'0 0.0
2016-Aug-17 21:32N 40°25' E 029°05'0 0.0
2016-Aug-17 20:26N 40°25' E 029°05'0 0.0
2016-Aug-17 19:32N 40°25' E 029°05'0 0.0
2016-Aug-17 18:32N 40°25' E 029°05'0 0.0
2016-Aug-17 17:26N 40°25' E 029°05'0 0.0
2016-Aug-17 16:32N 40°25' E 029°05'0 0.0
2016-Aug-17 15:32N 40°25' E 029°05'0 0.0
2016-Aug-17 14:32N 40°25' E 029°05'0 0.0
2016-Aug-17 13:32N 40°25' E 029°05'0 0.0
2016-Aug-17 12:32N 40°25' E 029°05'0 0.0
2016-Aug-17 11:32N 40°25' E 029°05'0 0.0
2016-Aug-17 10:26N 40°25' E 029°05'0 0.0
2016-Aug-17 09:26N 40°25' E 029°05'0 0.0
2016-Aug-17 08:08N 40°25' E 029°05'0 0.0
2016-Aug-17 07:32N 40°25' E 029°05'0 0.0
2016-Aug-17 06:08N 40°25' E 029°05'0 0.0
2016-Aug-17 05:26N 40°25' E 029°05'0 0.0
2016-Aug-17 04:26N 40°25' E 029°05'0 0.0
2016-Aug-17 03:32N 40°25' E 029°05'0 0.0
2016-Aug-17 02:26N 40°25' E 029°05'0 0.0
2016-Aug-17 01:32N 40°25' E 029°05'0 0.0
2016-Aug-17 00:26N 40°25' E 029°05'0 0.0
2016-Aug-16 23:20N 40°25' E 029°05'0 0.0
2016-Aug-16 22:32N 40°25' E 029°05'0 0.0
2016-Aug-16 21:26N 40°25' E 029°05'0 0.0
2016-Aug-16 20:32N 40°25' E 029°05'0 0.0
2016-Aug-16 19:26N 40°25' E 029°05'0 0.0
2016-Aug-16 18:32N 40°25' E 029°05'0 0.0
2016-Aug-16 17:26N 40°25' E 029°05'0 0.0
2016-Aug-16 16:20N 40°25' E 029°05'0 0.0
2016-Aug-16 14:32N 40°25' E 029°05'0 0.0
2016-Aug-16 13:32N 40°25' E 029°05'0 0.0
2016-Aug-16 12:14N 40°25' E 029°05'0 0.0
2016-Aug-16 11:32N 40°25' E 029°05'0 0.0
2016-Aug-16 10:26N 40°25' E 029°05'0 0.0
2016-Aug-16 09:26N 40°25' E 029°05'0 0.0
2016-Aug-16 08:32N 40°25' E 029°05'0 0.0
2016-Aug-16 07:26N 40°25' E 029°05'0 0.0
2016-Aug-16 04:32N 40°25' E 029°05'0 0.0
2016-Aug-16 03:26N 40°25' E 029°05'0 0.0
2016-Aug-16 02:32N 40°25' E 029°05'0 0.0
2016-Aug-16 00:32N 40°25' E 029°05'0 0.0
2016-Aug-15 23:32N 40°25' E 029°05'0 0.0
2016-Aug-15 22:32N 40°25' E 029°05'0 0.0
2016-Aug-15 21:32N 40°25' E 029°05'0 0.0
2016-Aug-15 20:26N 40°25' E 029°05'0 0.0
2016-Aug-15 19:32N 40°25' E 029°05'0 0.0
2016-Aug-15 18:32N 40°25' E 029°05'0 0.0
2016-Aug-15 17:32N 40°25' E 029°05'0 0.0
2016-Aug-15 15:32N 40°25' E 029°05'1 1.0
2016-Aug-15 14:33N 40°26' E 029°05'2 0.1
2016-Aug-14 17:33N 40°26' E 029°02'16 7.8
2016-Aug-14 15:27N 40°38' E 028°47'1010.7
2016-Aug-14 14:31N 40°48' E 028°50'1010.4
2016-Aug-14 13:31N 40°58' E 028°55'4 0.2
2016-Aug-13 21:17N 40°59' E 028°59'33510.2
2016-Aug-12 12:26N 46°23' E 030°55'910.3
2016-Aug-12 11:32N 46°32' E 030°55'  

Dump ship's entire track history